Time;durP1;ratioP1;P1;durP2;ratioP2;P2;SDS_P1;SDS_P2;PMS_P1;PMS_P2;Temp;Humidity;BMP_temperature;BMP_pressure;BME280_temperature;BME280_humidity;BME280_pressure;Samples;Min_cycle;Max_cycle;Signal;HPM_P1;HPM_P2
2022/11/05 00:17:41;;;;;;;13.00;11.90;;;11.80;99.90;;;;;;10464027;28;20189;-80
2022/11/05 00:28:04;;;;;;;12.23;11.20;;;11.80;99.90;;;;;;10447259;28;20196;-81
2022/11/05 00:33:06;;;;;;;11.73;11.13;;;11.80;99.90;;;;;;10462934;28;20217;-80
2022/11/05 00:38:10;;;;;;;11.80;11.00;;;11.80;99.90;;;;;;10472448;28;20205;-79
2022/11/05 00:53:53;;;;;;;10.00;9.50;;;11.90;99.90;;;;;;10477315;28;20213;-81
2022/11/05 00:58:56;;;;;;;10.50;9.67;;;11.90;99.90;;;;;;10477962;28;20216;-81
2022/11/05 01:03:58;;;;;;;10.37;9.87;;;11.90;99.90;;;;;;10477998;28;20221;-80
2022/11/05 01:09:02;;;;;;;9.97;9.47;;;11.90;99.90;;;;;;10478260;28;20201;-80
2022/11/05 01:14:07;;;;;;;11.20;10.10;;;11.90;99.90;;;;;;10461897;28;20257;-82
2022/11/05 01:19:10;;;;;;;10.33;9.83;;;11.90;99.90;;;;;;10470749;28;20713;-81
2022/11/05 01:24:14;;;;;;;9.97;9.20;;;12.00;99.90;;;;;;10462562;28;20304;-80
2022/11/05 01:29:16;;;;;;;10.07;9.57;;;12.00;99.90;;;;;;10463314;28;20625;-81
2022/11/05 01:34:18;;;;;;;9.63;8.93;;;12.00;99.90;;;;;;10450644;28;20693;-81
2022/11/05 01:39:21;;;;;;;9.20;8.60;;;12.00;99.90;;;;;;10467716;28;20200;-80
2022/11/05 01:44:54;;;;;;;10.30;9.67;;;12.00;99.90;;;;;;10470676;28;20239;-81
2022/11/05 01:50:00;;;;;;;7.90;7.50;;;12.00;99.90;;;;;;10466933;28;20198;-80
2022/11/05 01:55:05;;;;;;;7.83;7.43;;;12.00;99.90;;;;;;10460639;28;20217;-80
2022/11/05 02:00:09;;;;;;;7.03;6.63;;;12.10;99.90;;;;;;10463044;28;20220;-82
2022/11/05 02:05:15;;;;;;;7.30;6.77;;;12.00;99.90;;;;;;10422523;28;20219;-80
2022/11/05 02:10:19;;;;;;;7.03;6.63;;;12.00;99.90;;;;;;10459780;28;20267;-80
2022/11/05 02:15:28;;;;;;;6.57;6.27;;;12.00;99.90;;;;;;10460709;28;20244;-82
2022/11/05 02:20:40;;;;;;;6.83;6.53;;;12.00;99.90;;;;;;10462166;28;20185;-81
2022/11/05 02:26:11;;;;;;;6.70;6.30;;;12.10;99.90;;;;;;10462592;28;20215;-80
2022/11/05 02:31:23;;;;;;;6.73;6.23;;;12.00;99.90;;;;;;10476600;28;20256;-82
2022/11/05 02:36:38;;;;;;;6.57;5.90;;;12.00;99.90;;;;;;10474986;28;20236;-81
2022/11/05 02:41:47;;;;;;;6.23;5.83;;;12.00;99.90;;;;;;10471274;28;20559;-81
2022/11/05 02:46:56;;;;;;;7.30;6.90;;;12.10;99.90;;;;;;10472052;28;20634;-80
2022/11/05 02:52:02;;;;;;;7.57;7.27;;;12.00;99.90;;;;;;10451782;28;20205;-81
2022/11/05 02:57:05;;;;;;;7.17;6.83;;;12.00;99.90;;;;;;10466670;28;20217;-81
2022/11/05 03:02:09;;;;;;;7.90;7.43;;;12.10;99.90;;;;;;10462927;28;20201;-79
2022/11/05 03:07:26;;;;;;;7.67;7.27;;;12.10;99.90;;;;;;10466701;28;20213;-81
2022/11/05 03:12:38;;;;;;;7.60;7.20;;;12.10;99.90;;;;;;10457295;28;20304;-81
2022/11/05 03:17:52;;;;;;;7.00;6.70;;;12.10;99.90;;;;;;10459059;28;20259;-79
2022/11/05 03:22:59;;;;;;;7.93;7.53;;;12.10;99.90;;;;;;10457098;28;20654;-80
2022/11/05 03:28:06;;;;;;;9.17;8.67;;;12.10;99.90;;;;;;10437828;28;20220;-80
2022/11/05 03:33:15;;;;;;;7.40;7.00;;;12.10;99.90;;;;;;10464988;28;20217;-80
2022/11/05 03:38:21;;;;;;;7.93;7.43;;;12.10;99.90;;;;;;10456272;28;20746;-82
2022/11/05 03:43:28;;;;;;;7.03;6.53;;;12.10;99.90;;;;;;10456133;28;20220;-82
2022/11/05 03:48:37;;;;;;;7.73;7.23;;;12.00;99.90;;;;;;10467601;28;20193;-82
2022/11/05 03:53:46;;;;;;;7.43;7.03;;;12.10;99.90;;;;;;10481822;28;20759;-79
2022/11/05 03:58:48;;;;;;;6.90;6.60;;;12.00;99.90;;;;;;10469331;28;20292;-81
2022/11/05 04:03:52;;;;;;;7.60;7.17;;;12.10;99.90;;;;;;10452244;28;20212;-82
2022/11/05 04:14:13;;;;;;;6.70;6.40;;;11.90;99.90;;;;;;10454853;28;20227;-80
2022/11/05 04:24:07;;;;;;;9.60;9.20;;;11.80;99.90;;;;;;10454408;28;20622;-80
2022/11/05 04:24:39;;;;;;;10.93;10.43;;;11.80;99.90;;;;;;10458863;28;20594;-81
2022/11/05 04:35:01;;;;;;;12.17;11.57;;;11.60;99.90;;;;;;10467084;28;20303;-79
2022/11/05 04:40:04;;;;;;;15.50;14.40;;;11.50;99.90;;;;;;10470453;28;20200;-81
2022/11/05 04:45:06;;;;;;;13.97;12.97;;;11.40;99.90;;;;;;10471368;28;20275;-79
2022/11/05 04:50:11;;;;;;;14.77;14.07;;;11.40;99.90;;;;;;10458664;28;20236;-82
2022/11/05 04:55:13;;;;;;;13.50;12.80;;;11.40;99.90;;;;;;10467846;28;20255;-82
2022/11/05 05:00:16;;;;;;;13.50;12.70;;;11.30;99.90;;;;;;10465191;28;20602;-82
2022/11/05 05:05:20;;;;;;;12.20;11.67;;;11.30;99.90;;;;;;10473071;28;20281;-82
2022/11/05 05:10:22;;;;;;;10.97;10.37;;;11.30;99.90;;;;;;10451233;28;20209;-81
2022/11/05 05:15:24;;;;;;;11.90;11.20;;;11.20;99.90;;;;;;10466407;28;20225;-81
2022/11/05 05:25:47;;;;;;;13.20;12.50;;;11.20;99.90;;;;;;10470789;28;20241;-80
2022/11/05 05:30:50;;;;;;;20.43;18.87;;;11.20;99.90;;;;;;10476245;28;20193;-81
2022/11/05 05:35:53;;;;;;;19.40;18.07;;;11.10;99.90;;;;;;10474946;28;20216;-81
2022/11/05 05:40:58;;;;;;;18.00;16.87;;;11.10;99.90;;;;;;10476960;28;20229;-82
2022/11/05 05:46:02;;;;;;;16.60;15.50;;;11.10;99.90;;;;;;10458353;28;20221;-81
2022/11/05 05:51:07;;;;;;;14.60;13.60;;;11.20;99.90;;;;;;10475139;28;20224;-80
2022/11/05 05:56:09;;;;;;;19.93;18.63;;;11.10;99.90;;;;;;10475906;28;20213;-81
2022/11/05 06:01:14;;;;;;;17.67;16.40;;;11.20;99.90;;;;;;10474852;28;20185;-81
2022/11/05 06:06:19;;;;;;;20.87;19.17;;;11.20;99.90;;;;;;10472643;28;20300;-81
2022/11/05 06:11:22;;;;;;;26.07;24.07;;;11.20;99.90;;;;;;10473080;28;20248;-80
2022/11/05 06:16:24;;;;;;;27.57;25.50;;;11.30;99.90;;;;;;10473963;28;20221;-80
2022/11/05 06:21:27;;;;;;;32.10;29.33;;;11.30;99.90;;;;;;10456190;28;20209;-81
2022/11/05 06:26:30;;;;;;;32.93;30.13;;;11.40;99.90;;;;;;10456131;28;20220;-79
2022/11/05 06:31:32;;;;;;;34.17;31.03;;;11.40;99.90;;;;;;10471173;28;20248;-80
2022/11/05 06:36:35;;;;;;;33.10;28.83;;;11.40;99.90;;;;;;10456155;28;20237;-79
2022/11/05 06:41:37;;;;;;;39.97;36.17;;;11.50;99.90;;;;;;10456084;28;20201;-81
2022/11/05 06:46:39;;;;;;;40.20;36.40;;;11.50;99.90;;;;;;10457744;28;20223;-81
2022/11/05 06:51:43;;;;;;;39.67;35.67;;;11.60;99.90;;;;;;10473259;28;20764;-80
2022/11/05 06:56:45;;;;;;;40.73;36.83;;;11.60;99.90;;;;;;10472699;28;20217;-81
2022/11/05 07:01:47;;;;;;;38.63;34.97;;;11.60;99.90;;;;;;10481029;28;20200;-80
2022/11/05 07:06:50;;;;;;;41.33;37.37;;;11.60;99.90;;;;;;10491319;28;20224;-81
2022/11/05 07:11:52;;;;;;;45.30;37.23;;;11.70;99.90;;;;;;10457470;28;20232;-80
2022/11/05 07:16:56;;;;;;;41.57;37.27;;;11.70;99.90;;;;;;10474194;28;20225;-79
2022/11/05 07:22:00;;;;;;;46.50;37.53;;;11.70;99.90;;;;;;10473392;28;20207;-79
2022/11/05 07:27:02;;;;;;;43.27;38.90;;;11.80;99.90;;;;;;10472829;28;20218;-80
2022/11/05 07:32:04;;;;;;;41.30;37.10;;;11.80;99.90;;;;;;10471687;28;20673;-81
2022/11/05 07:37:08;;;;;;;39.17;35.17;;;11.80;99.90;;;;;;10470337;28;20235;-79
2022/11/05 07:42:12;;;;;;;40.30;36.23;;;11.80;99.90;;;;;;10469809;28;20197;-80
2022/11/05 07:47:15;;;;;;;35.90;32.20;;;11.90;99.90;;;;;;10471336;28;20247;-79
2022/11/05 07:52:18;;;;;;;40.87;36.77;;;11.90;99.90;;;;;;10472882;28;20209;-80
2022/11/05 07:57:20;;;;;;;39.40;35.90;;;11.90;99.90;;;;;;10471996;28;20217;-79
2022/11/05 08:02:22;;;;;;;38.93;35.10;;;11.90;99.90;;;;;;10469629;28;20620;-79
2022/11/05 08:07:26;;;;;;;38.67;34.63;;;11.90;99.90;;;;;;10469815;28;20213;-81
2022/11/05 08:12:28;;;;;;;37.77;34.23;;;12.00;99.90;;;;;;10468128;28;20216;-79
2022/11/05 08:17:30;;;;;;;37.60;34.23;;;12.00;99.90;;;;;;10467539;28;20243;-81
2022/11/05 08:22:33;;;;;;;33.50;30.07;;;12.00;99.90;;;;;;10468585;28;20204;-79
2022/11/05 08:27:35;;;;;;;23.70;21.60;;;11.90;99.90;;;;;;10452772;28;20304;-80
2022/11/05 08:32:37;;;;;;;20.90;19.40;;;11.90;99.90;;;;;;10470104;28;20259;-80
2022/11/05 08:37:41;;;;;;;16.60;15.20;;;11.80;99.90;;;;;;10468529;28;20247;-80
2022/11/05 08:42:43;;;;;;;17.13;15.73;;;11.70;99.90;;;;;;10467574;28;20193;-79
2022/11/05 08:47:45;;;;;;;17.40;16.20;;;11.70;99.90;;;;;;10464984;28;20474;-79
2022/11/05 08:52:48;;;;;;;17.90;16.60;;;11.60;99.90;;;;;;10464056;28;20408;-79
2022/11/05 08:57:56;;;;;;;13.93;13.03;;;11.60;99.90;;;;;;10471413;28;20280;-79
2022/11/05 09:02:59;;;;;;;15.97;14.97;;;11.60;99.90;;;;;;10445987;28;20608;-80
2022/11/05 09:08:03;;;;;;;11.93;11.13;;;11.60;99.90;;;;;;10478852;28;20197;-80
2022/11/05 09:13:06;;;;;;;16.20;15.20;;;11.60;99.90;;;;;;10476748;28;20684;-80
2022/11/05 09:18:12;;;;;;;13.70;12.80;;;11.60;99.90;;;;;;10476108;28;20252;-80
2022/11/05 09:23:15;;;;;;;18.77;17.47;;;11.60;99.90;;;;;;10473589;28;20205;-80
2022/11/05 09:28:19;;;;;;;17.37;15.93;;;11.70;99.90;;;;;;10457440;28;20193;-80
2022/11/05 09:33:22;;;;;;;13.93;13.03;;;11.70;99.90;;;;;;10475137;28;20229;-81
2022/11/05 09:38:26;;;;;;;16.87;15.67;;;11.70;99.90;;;;;;10477556;28;20201;-80
2022/11/05 09:43:34;;;;;;;11.27;10.33;;;11.60;99.90;;;;;;10476188;28;20291;-80
2022/11/05 09:48:39;;;;;;;19.77;18.27;;;11.60;99.90;;;;;;10474168;28;20201;-81
2022/11/05 09:53:44;;;;;;;19.80;18.37;;;11.50;99.90;;;;;;10456621;28;20263;-80
2022/11/05 09:58:49;;;;;;;19.33;17.67;;;11.50;99.90;;;;;;10475044;28;20201;-80
2022/11/05 10:03:55;;;;;;;23.70;21.80;;;11.40;99.90;;;;;;10472918;28;20216;-81
2022/11/05 10:09:05;;;;;;;26.47;24.37;;;11.50;99.90;;;;;;10474791;28;20204;-81
2022/11/05 10:14:14;;;;;;;26.40;24.00;;;11.50;99.90;;;;;;10472059;28;20217;-81
2022/11/05 10:19:23;;;;;;;25.13;23.10;;;11.60;99.90;;;;;;10465576;28;20556;-82
2022/11/05 10:24:27;;;;;;;24.10;21.90;;;11.60;99.90;;;;;;10462848;28;20212;-82
2022/11/05 10:29:33;;;;;;;22.03;20.03;;;11.70;99.90;;;;;;10479047;28;20205;-81
2022/11/05 10:34:38;;;;;;;25.23;22.87;;;11.70;99.90;;;;;;10470816;28;20273;-81
2022/11/05 10:39:41;;;;;;;23.40;21.50;;;11.80;99.90;;;;;;10469283;28;20288;-82
2022/11/05 10:44:49;;;;;;;24.53;22.57;;;11.80;99.90;;;;;;10472305;28;20201;-82
2022/11/05 10:49:57;;;;;;;23.07;21.00;;;11.90;99.90;;;;;;10469318;28;20225;-82
2022/11/05 10:55:04;;;;;;;23.83;21.67;;;12.00;99.90;;;;;;10447107;28;20225;-81
2022/11/05 11:00:23;;;;;;;23.73;21.83;;;12.10;99.90;;;;;;10475871;28;20201;-81
2022/11/05 11:05:29;;;;;;;23.80;21.80;;;12.20;99.90;;;;;;10472392;28;20213;-83
2022/11/05 11:10:41;;;;;;;24.10;21.97;;;12.40;99.90;;;;;;10479761;28;20245;-82
2022/11/05 11:15:43;;;;;;;20.23;18.80;;;12.50;99.90;;;;;;10470815;28;20221;-82
2022/11/05 11:20:45;;;;;;;19.23;17.73;;;12.70;99.90;;;;;;10476237;28;20212;-81
2022/11/05 11:25:52;;;;;;;18.20;16.60;;;12.70;99.90;;;;;;10474950;28;20216;-82
2022/11/05 11:31:02;;;;;;;20.23;18.53;;;12.70;99.90;;;;;;10469584;28;20209;-82
2022/11/05 11:36:06;;;;;;;19.60;18.00;;;12.80;99.90;;;;;;10466463;28;20225;-81
2022/11/05 11:41:25;;;;;;;18.10;16.50;;;12.80;99.90;;;;;;10467002;28;20209;-82
2022/11/05 11:46:32;;;;;;;17.17;15.50;;;12.90;99.90;;;;;;10468357;28;20710;-81
2022/11/05 11:51:39;;;;;;;20.40;18.30;;;12.90;99.90;;;;;;10469416;28;20689;-82
2022/11/05 11:56:47;;;;;;;18.70;17.00;;;13.00;99.90;;;;;;10469178;28;20220;-82
2022/11/05 12:02:11;;;;;;;18.40;16.70;;;13.10;99.90;;;;;;10469700;28;20197;-83
2022/11/05 12:07:28;;;;;;;15.57;14.20;;;13.10;99.90;;;;;;10473824;28;20300;-81
2022/11/05 12:12:38;;;;;;;14.63;13.47;;;13.20;99.90;;;;;;10471026;28;20212;-81
2022/11/05 12:17:50;;;;;;;12.63;11.53;;;13.30;99.90;;;;;;10468780;28;20217;-80
2022/11/05 12:23:21;;;;;;;13.07;11.90;;;13.30;99.90;;;;;;10468678;28;20229;-82
2022/11/05 12:28:37;;;;;;;14.77;13.77;;;13.40;99.90;;;;;;10483676;28;20668;-82
2022/11/05 12:33:50;;;;;;;12.07;11.17;;;13.40;99.90;;;;;;10484882;28;20236;-82
2022/11/05 12:39:25;;;;;;;13.50;12.50;;;13.40;99.90;;;;;;10480777;28;20232;-82
2022/11/05 12:44:54;;;;;;;14.77;13.57;;;13.30;99.90;;;;;;10490578;28;20227;-81
2022/11/05 12:50:11;;;;;;;13.10;11.90;;;13.10;99.90;;;;;;10456886;28;20223;-82
2022/11/05 12:55:17;;;;;;;14.33;13.20;;;13.10;99.90;;;;;;10452297;28;20261;-82
2022/11/05 13:00:22;;;;;;;13.17;12.07;;;13.10;99.90;;;;;;10470550;28;20213;-82
2022/11/05 13:05:33;;;;;;;13.53;12.37;;;13.10;99.90;;;;;;10474924;28;20209;-82
2022/11/05 13:10:40;;;;;;;13.27;12.13;;;13.20;99.90;;;;;;10442887;28;20189;-81
2022/11/05 13:15:49;;;;;;;14.90;13.70;;;13.20;99.90;;;;;;10474216;22;20260;-82
2022/11/05 13:20:54;;;;;;;14.13;13.03;;;13.20;99.90;;;;;;10417249;28;20193;-82
2022/11/05 13:26:00;;;;;;;16.10;14.70;;;13.30;99.90;;;;;;10466607;28;20236;-83
2022/11/05 13:31:09;;;;;;;15.23;14.03;;;13.30;99.90;;;;;;10432060;28;20652;-82
2022/11/05 13:41:49;;;;;;;14.20;13.20;;;13.40;99.90;;;;;;10431411;28;20660;-83
2022/11/05 13:47:11;;;;;;;12.53;11.47;;;13.40;99.90;;;;;;10430144;28;20236;-84
2022/11/05 13:52:36;;;;;;;12.43;11.43;;;13.40;99.90;;;;;;10447749;28;20232;-83
2022/11/05 13:57:57;;;;;;;12.77;11.67;;;13.40;99.90;;;;;;10464131;28;20223;-82
2022/11/05 14:03:04;;;;;;;11.53;9.93;;;13.30;99.90;;;;;;10428381;28;20197;-82
2022/11/05 14:08:11;;;;;;;11.77;10.77;;;13.30;99.90;;;;;;10436782;28;20220;-83
2022/11/05 14:13:25;;;;;;;12.73;11.50;;;13.20;99.90;;;;;;10438483;28;20201;-82
2022/11/05 14:18:41;;;;;;;13.90;12.60;;;13.10;99.90;;;;;;10449206;28;20193;-82
2022/11/05 14:23:51;;;;;;;12.80;11.60;;;13.00;99.90;;;;;;10472945;28;20212;-82
2022/11/05 14:29:20;;;;;;;12.30;11.17;;;12.90;99.90;;;;;;10437708;28;20283;-82
2022/11/05 14:34:42;;;;;;;13.10;12.10;;;12.80;99.90;;;;;;10444245;28;20802;-84
2022/11/05 14:39:45;;;;;;;12.97;11.80;;;12.80;99.90;;;;;;10461564;28;20623;-81
2022/11/05 14:45:05;;;;;;;15.00;13.70;;;12.80;99.90;;;;;;10449700;28;20582;-82
2022/11/05 14:50:16;;;;;;;13.70;12.60;;;12.80;99.90;;;;;;10446718;28;20217;-82
2022/11/05 14:55:28;;;;;;;16.40;15.00;;;12.70;99.90;;;;;;10430122;28;20231;-83
2022/11/05 15:00:47;;;;;;;13.33;12.20;;;12.70;99.90;;;;;;10447784;28;20197;-83
2022/11/05 15:05:52;;;;;;;12.57;11.47;;;12.70;99.90;;;;;;10448882;28;20295;-82
2022/11/05 15:10:57;;;;;;;12.97;10.97;;;12.60;99.90;;;;;;10462013;28;20201;-82
2022/11/05 15:16:00;;;;;;;12.20;11.30;;;12.60;99.90;;;;;;10448861;28;20766;-82
2022/11/05 15:21:04;;;;;;;10.97;10.10;;;12.60;99.90;;;;;;10446045;28;20197;-82
2022/11/05 15:26:13;;;;;;;11.80;10.80;;;12.60;99.90;;;;;;10449689;28;20292;-82
2022/11/05 15:31:29;;;;;;;13.20;12.17;;;12.60;99.90;;;;;;10452531;28;20221;-83
2022/11/05 15:36:32;;;;;;;10.90;10.00;;;12.50;99.90;;;;;;10465026;28;20251;-83
2022/11/05 15:41:34;;;;;;;12.27;11.27;;;12.50;99.90;;;;;;10446621;28;20201;-85
2022/11/05 15:46:36;;;;;;;12.20;11.30;;;12.50;99.90;;;;;;10446458;28;20205;-82
2022/11/05 15:51:40;;;;;;;13.47;12.37;;;12.50;99.90;;;;;;10442835;28;20292;-83
2022/11/05 15:56:48;;;;;;;11.43;10.30;;;12.40;99.90;;;;;;10442527;28;20225;-82
2022/11/05 16:01:53;;;;;;;12.70;11.70;;;12.50;99.90;;;;;;10441761;28;20193;-83
2022/11/05 16:07:00;;;;;;;13.93;11.97;;;12.50;99.90;;;;;;10438456;28;20213;-83
2022/11/05 16:12:13;;;;;;;11.10;10.10;;;12.40;99.90;;;;;;10435576;28;20221;-83
2022/11/05 16:17:20;;;;;;;12.77;11.80;;;12.40;99.90;;;;;;10434472;28;20224;-83
2022/11/05 16:22:28;;;;;;;14.07;12.70;;;12.30;99.90;;;;;;10453038;28;20182;-83
2022/11/05 16:27:30;;;;;;;15.30;13.80;;;12.20;99.90;;;;;;10431505;28;20217;-82
2022/11/05 16:32:32;;;;;;;15.17;13.87;;;12.20;99.90;;;;;;10412809;28;20334;-83
2022/11/05 16:37:42;;;;;;;16.00;14.50;;;12.10;99.90;;;;;;10433563;28;20686;-83
2022/11/05 16:42:47;;;;;;;15.90;14.30;;;12.10;99.90;;;;;;10418919;28;20205;-84
2022/11/05 16:47:49;;;;;;;15.23;13.80;;;12.10;99.90;;;;;;10461213;28;20245;-84
2022/11/05 16:52:53;;;;;;;10.13;9.20;;;12.10;99.90;;;;;;10441255;28;20201;-82
2022/11/05 16:57:55;;;;;;;13.60;12.40;;;12.00;99.90;;;;;;10424697;28;20221;-83
2022/11/05 17:02:58;;;;;;;28.07;24.00;;;11.90;99.90;;;;;;10455914;28;20243;-83
2022/11/05 17:08:02;;;;;;;21.30;19.23;;;11.80;99.90;;;;;;10443344;28;20342;-83
2022/11/05 17:13:04;;;;;;;20.83;18.20;;;11.70;99.90;;;;;;10421758;28;20209;-83
2022/11/05 17:18:06;;;;;;;13.07;11.87;;;11.50;99.90;;;;;;10428562;28;20224;-82
2022/11/05 17:23:11;;;;;;;14.50;13.30;;;11.40;99.90;;;;;;10426476;28;20610;-83
2022/11/05 17:28:13;;;;;;;17.00;15.37;;;11.20;99.90;;;;;;10435000;28;20217;-82
2022/11/05 17:33:15;;;;;;;12.10;11.10;;;11.10;99.90;;;;;;10442239;28;20208;-85
2022/11/05 17:38:19;;;;;;;11.03;10.03;;;10.90;99.90;;;;;;10431748;28;20284;-85
2022/11/05 17:43:33;;;;;;;12.23;11.20;;;10.80;99.90;;;;;;10429175;28;20209;-85
2022/11/05 17:48:41;;;;;;;11.37;10.27;;;10.70;99.90;;;;;;10434007;28;20259;-82
2022/11/05 17:53:47;;;;;;;11.33;10.20;;;10.60;99.90;;;;;;10423663;28;20217;-82
2022/11/05 17:58:50;;;;;;;11.50;10.60;;;10.60;99.90;;;;;;10457755;28;20231;-82
2022/11/05 18:03:54;;;;;;;11.87;10.97;;;10.50;99.90;;;;;;10443448;28;20217;-82
2022/11/05 18:09:06;;;;;;;12.20;11.10;;;10.50;99.90;;;;;;10444545;28;20664;-84
2022/11/05 18:14:08;;;;;;;13.50;12.33;;;10.50;99.90;;;;;;10439047;28;20644;-84
2022/11/05 18:19:11;;;;;;;10.67;9.90;;;10.50;99.90;;;;;;10424000;28;20197;-84
2022/11/05 18:24:14;;;;;;;10.57;9.50;;;10.50;99.90;;;;;;10434488;28;20213;-83
2022/11/05 18:29:16;;;;;;;11.17;10.07;;;10.30;99.90;;;;;;10425418;28;20197;-83
2022/11/05 18:34:18;;;;;;;12.27;11.17;;;10.30;99.90;;;;;;10424834;28;20236;-83
2022/11/05 18:39:22;;;;;;;15.00;13.53;;;10.10;99.90;;;;;;10442723;28;20661;-83
2022/11/05 18:44:24;;;;;;;13.20;12.20;;;10.10;99.90;;;;;;10441416;28;20240;-83
2022/11/05 18:49:27;;;;;;;12.67;11.40;;;10.00;99.90;;;;;;10428258;28;20205;-83
2022/11/05 18:54:37;;;;;;;11.70;10.67;;;10.00;99.90;;;;;;10456753;28;20221;-82
2022/11/05 18:59:40;;;;;;;13.13;12.13;;;10.00;99.90;;;;;;10441650;28;20248;-81
2022/11/05 19:04:43;;;;;;;11.47;10.47;;;10.00;99.90;;;;;;10443912;28;20632;-82
2022/11/05 19:09:47;;;;;;;13.67;10.67;;;10.00;99.90;;;;;;10424659;28;20280;-82
2022/11/05 19:14:49;;;;;;;13.03;11.80;;;9.90;99.90;;;;;;10470016;22;20593;-80
2022/11/05 19:19:51;;;;;;;13.60;12.30;;;9.90;99.90;;;;;;10487508;28;20664;-82
2022/11/05 19:24:54;;;;;;;17.30;16.00;;;9.80;99.90;;;;;;10461654;28;20572;-82
2022/11/05 19:29:57;;;;;;;18.43;16.70;;;9.80;99.90;;;;;;10442730;28;20205;-80
2022/11/05 19:34:59;;;;;;;17.27;15.93;;;9.80;99.90;;;;;;10456200;28;20260;-79
2022/11/05 19:40:02;;;;;;;16.27;14.97;;;9.80;99.90;;;;;;10439294;28;20668;-79
2022/11/05 19:45:05;;;;;;;17.37;15.67;;;9.80;99.90;;;;;;10441752;28;20225;-82
2022/11/05 19:50:08;;;;;;;24.90;22.70;;;9.80;99.90;;;;;;10460229;28;20259;-79
2022/11/05 19:55:12;;;;;;;25.40;23.30;;;9.80;99.90;;;;;;10458340;28;20625;-78
2022/11/05 20:00:15;;;;;;;23.63;21.63;;;9.80;99.90;;;;;;10474068;28;20193;-79
2022/11/05 20:05:17;;;;;;;18.57;16.83;;;9.70;99.90;;;;;;10470155;28;20224;-79
2022/11/05 20:10:21;;;;;;;24.10;19.90;;;9.70;99.90;;;;;;10442816;28;20223;-79
2022/11/05 20:15:23;;;;;;;19.87;18.07;;;9.60;99.90;;;;;;10450744;28;20217;-80
2022/11/05 20:20:25;;;;;;;22.53;20.53;;;9.60;99.90;;;;;;10461551;28;20197;-79
2022/11/05 20:25:28;;;;;;;17.47;16.10;;;9.60;99.90;;;;;;10479557;28;20251;-80
2022/11/05 20:30:30;;;;;;;47.77;41.07;;;9.60;99.90;;;;;;10436816;28;20228;-79
2022/11/05 20:35:32;;;;;;;22.00;19.73;;;9.60;99.90;;;;;;10447285;28;20304;-79
2022/11/05 20:40:39;;;;;;;19.87;17.97;;;9.60;99.90;;;;;;10472238;28;20201;-80
2022/11/05 20:45:41;;;;;;;15.83;14.63;;;9.70;99.90;;;;;;10463463;28;20295;-79
2022/11/05 20:50:44;;;;;;;24.13;21.90;;;9.60;99.90;;;;;;10461767;28;20289;-80
2022/11/05 20:55:48;;;;;;;18.87;17.17;;;9.60;99.90;;;;;;10470621;28;20240;-79
2022/11/05 21:00:53;;;;;;;15.70;14.33;;;9.60;99.90;;;;;;10462787;28;20197;-82
2022/11/05 21:05:58;;;;;;;19.23;17.50;;;9.60;99.90;;;;;;10448015;28;20240;-79
2022/11/05 21:11:02;;;;;;;13.53;12.33;;;9.70;99.90;;;;;;10491776;28;20200;-82
2022/11/05 21:16:07;;;;;;;19.37;17.77;;;9.70;99.90;;;;;;10485232;28;20216;-83
2022/11/05 21:21:13;;;;;;;19.13;17.43;;;9.70;99.90;;;;;;10448366;28;20196;-82
2022/11/05 21:26:17;;;;;;;16.67;15.07;;;9.70;99.90;;;;;;10466909;28;20209;-81
2022/11/05 21:31:19;;;;;;;17.93;16.30;;;9.80;99.90;;;;;;10447587;28;20603;-82
2022/11/05 21:36:21;;;;;;;19.93;18.23;;;9.70;99.90;;;;;;10453008;28;20228;-83
2022/11/05 21:41:25;;;;;;;19.03;17.13;;;9.70;99.90;;;;;;10448112;28;20205;-79
2022/11/05 21:46:27;;;;;;;19.30;17.60;;;9.70;99.90;;;;;;10454039;28;20214;-80
2022/11/05 22:02:11;;;;;;;21.40;19.30;;;9.50;99.90;;;;;;10493932;28;20307;-79
2022/11/05 22:07:15;;;;;;;25.00;22.37;;;9.40;99.90;;;;;;10453184;28;20248;-81
2022/11/05 22:12:19;;;;;;;21.07;19.17;;;9.40;99.90;;;;;;10488187;28;20287;-81
2022/11/05 22:17:21;;;;;;;20.67;18.87;;;9.40;99.90;;;;;;10451292;28;20221;-81
2022/11/05 22:22:23;;;;;;;20.50;18.57;;;9.40;99.90;;;;;;10463852;28;20228;-81
2022/11/05 22:27:27;;;;;;;20.27;18.50;;;9.30;99.90;;;;;;10429742;28;20312;-81
2022/11/05 22:32:29;;;;;;;21.97;19.80;;;9.30;99.90;;;;;;10457909;28;20605;-81
2022/11/05 22:37:31;;;;;;;24.87;22.40;;;9.30;99.90;;;;;;10456516;28;20391;-80
2022/11/05 22:42:34;;;;;;;20.73;18.70;;;9.30;99.90;;;;;;10448790;28;20257;-82
2022/11/05 22:47:36;;;;;;;18.90;17.33;;;9.30;99.90;;;;;;10457574;28;20220;-80
2022/11/05 22:52:38;;;;;;;25.20;19.07;;;9.20;99.90;;;;;;10448353;28;20679;-79
2022/11/05 22:57:42;;;;;;;21.30;19.40;;;9.20;99.90;;;;;;10477387;28;20304;-81
2022/11/05 23:02:44;;;;;;;22.20;20.17;;;9.20;99.90;;;;;;10446615;28;20873;-81
2022/11/05 23:13:07;;;;;;;24.67;22.47;;;9.20;99.90;;;;;;10475344;28;20196;-80
2022/11/05 23:28:50;;;;;;;22.13;20.10;;;9.30;99.90;;;;;;10406522;28;20204;-81
2022/11/05 23:33:55;;;;;;;19.57;17.90;;;9.30;99.90;;;;;;10459725;28;20201;-83
2022/11/05 23:39:39;;;;;;;19.90;17.93;;;9.30;99.90;;;;;;10446345;28;20225;-80
2022/11/05 23:50:17;;;;;;;17.50;16.20;;;9.30;99.90;;;;;;10380085;28;20213;-80
2022/11/05 23:55:28;;;;;;;17.47;15.80;;;9.40;99.90;;;;;;10398638;28;20601;-80
